Pagina principală
METAR-TAF:

METAR-TAF

Aeroporturi :

Puerto Maldonado, Peru

Latitudine: 12-38S, longitudine: 069-12W, elevație: 265 m

Observații meteo curente

Raportul a fost făcut în urmă cu 6 ore și 32 de minute, la 23:00 UTC
Vânt calm
Temperatură 28°C
Umiditate 89%
Presiune 1008 hPa
Vizibilitate de 10 km sau mai mult
Nori puțini la o înălțime de 4000 picior

METAR: SPTU 142300Z 00000KT 9999 FEW040 28/26 Q1008 RMK BIRD HAZARD RWY 01/19 PP000

Ora: 00:32 (05:32 UTC)

Prognoză

Raportul a fost făcut în urmă cu 12 ore și 32 de minute, la 17:00 UTC
Prognoză valabilă de la 14 ora 18 UTC la 15 ora 18 UTC
Vânt 5 kt de la Nord-vest
Vizibilitate de 10 km sau mai mult
Nori fragmentați la o înălțime de 1000 picior
Devenind
de la 14 ora 19 UTC la 14 ora 21 UTC
Nori împrăștiați la o înălțime de 3000 picior

TAF: SPTU 141700Z 1418/1518 31005KT 9999 BKN010 TX31/1419Z TN23/1511Z BECMG 1419/1421 SCT030

Observații și prognoze meteo pentru peste 4.000 de aeroporturi (rapoarte METAR și TAF).

Stațiile disponibile sunt reprezentate pe hartă prin puncte galbene și roșii.

Țineți indicatorul mouse-ului pe punctul dorit pentru a vedea denumirea stației.

Apoi, faceți clic pentru a vedea observațiile și prognozele meteorologice.

Pentru a schimba harta: Pentru mărire, faceți clic pe butoanele verzi cu cruce neagră; pentru micșorare, pe butonul verde cu o liniuță; pentru hărți învecinate, pe săgețile verzi.


METAR-TAF: